Time;durP1;ratioP1;P1;durP2;ratioP2;P2;SDS_P1;SDS_P2;PMS_P1;PMS_P2;Temp;Humidity;BMP_temperature;BMP_pressure;BME280_temperature;BME280_humidity;BME280_pressure;Samples;Min_cycle;Max_cycle;Signal;HPM_P1;HPM_P2
2023/07/31 00:00:18;;;;;;;;;5.00;5.00;;;;;;;;5124910;27;46036;-75
2023/07/31 00:02:43;;;;;;;;;4.25;4.25;;;;;;;;5124483;27;48401;-75
2023/07/31 00:05:08;;;;;;;;;5.00;5.00;;;;;;;;5124578;27;45328;-75
2023/07/31 00:07:34;;;;;;;;;4.67;4.67;;;;;;;;5124572;27;45324;-75
2023/07/31 00:09:59;;;;;;;;;5.33;5.33;;;;;;;;5124545;27;45562;-75
2023/07/31 00:12:24;;;;;;;;;5.33;5.00;;;;;;;;5124267;27;47178;-75
2023/07/31 00:14:49;;;;;;;;;5.00;3.67;;;;;;;;5124622;27;45618;-75
2023/07/31 00:17:15;;;;;;;;;4.00;3.00;;;;;;;;5124625;27;45343;-75
2023/07/31 00:19:40;;;;;;;;;4.00;4.00;;;;;;;;5143109;27;45373;-74
2023/07/31 00:22:05;;;;;;;;;6.00;4.67;;;;;;;;5123925;27;46707;-75
2023/07/31 00:24:30;;;;;;;;;6.00;5.00;;;;;;;;5124456;27;45365;-75
2023/07/31 00:26:56;;;;;;;;;7.67;5.67;;;;;;;;5124362;27;45204;-74
2023/07/31 00:29:21;;;;;;;;;5.33;5.33;;;;;;;;5097799;27;45248;-75
2023/07/31 00:31:46;;;;;;;;;6.00;6.00;;;;;;;;5103482;27;48402;-75
2023/07/31 00:34:11;;;;;;;;;3.33;3.33;;;;;;;;5103566;27;45243;-75
2023/07/31 00:36:37;;;;;;;;;4.00;4.00;;;;;;;;5103396;27;45174;-76
2023/07/31 00:39:02;;;;;;;;;4.00;4.00;;;;;;;;5103444;27;45873;-75
2023/07/31 00:41:27;;;;;;;;;5.67;5.00;;;;;;;;5103202;27;48152;-74
2023/07/31 00:43:52;;;;;;;;;1.33;1.33;;;;;;;;5102869;27;45195;-75
2023/07/31 00:46:18;;;;;;;;;4.00;4.00;;;;;;;;5102025;27;45263;-74
2023/07/31 00:48:43;;;;;;;;;3.67;3.67;;;;;;;;5103213;27;45523;-75
2023/07/31 00:51:08;;;;;;;;;7.33;4.33;;;;;;;;5103069;27;46980;-75
2023/07/31 00:53:34;;;;;;;;;5.33;4.33;;;;;;;;5103318;27;45349;-75
2023/07/31 00:55:59;;;;;;;;;5.67;4.67;;;;;;;;5103467;27;45382;-75
2023/07/31 00:58:24;;;;;;;;;4.33;4.00;;;;;;;;5103126;27;45639;-75
2023/07/31 01:00:50;;;;;;;;;3.67;3.67;;;;;;;;5103196;27;47784;-75
2023/07/31 01:03:15;;;;;;;;;6.00;4.00;;;;;;;;5103079;27;45339;-75
2023/07/31 01:05:44;;;;;;;;;3.33;3.00;;;;;;;;5103056;27;45357;-75
2023/07/31 01:08:17;;;;;;;;;2.00;2.00;;;;;;;;5103055;27;46237;-75
2023/07/31 01:10:48;;;;;;;;;3.33;3.00;;;;;;;;5102799;27;47051;-75
2023/07/31 01:13:14;;;;;;;;;4.33;3.00;;;;;;;;5102858;27;45365;-75
2023/07/31 01:15:39;;;;;;;;;3.33;3.33;;;;;;;;5103023;27;45306;-75
2023/07/31 01:18:05;;;;;;;;;4.33;4.00;;;;;;;;5102782;27;45787;-75
2023/07/31 01:20:31;;;;;;;;;4.00;4.00;;;;;;;;5102452;27;48100;-75
2023/07/31 01:22:56;;;;;;;;;5.67;4.00;;;;;;;;5102669;27;45385;-75
2023/07/31 01:25:37;;;;;;;;;5.00;5.00;;;;;;;;5103004;27;45515;-74
2023/07/31 01:28:04;;;;;;;;;6.00;4.00;;;;;;;;5102619;27;45714;-75
2023/07/31 01:30:35;;;;;;;;;5.00;2.00;;;;;;;;5121217;27;48188;-74
2023/07/31 01:33:03;;;;;;;;;5.00;3.67;;;;;;;;5123391;27;45321;-75
2023/07/31 01:35:28;;;;;;;;;6.00;6.00;;;;;;;;5123117;27;45362;-75
2023/07/31 01:37:54;;;;;;;;;4.00;4.00;;;;;;;;5123120;27;45803;-75
2023/07/31 01:40:19;;;;;;;;;4.33;2.33;;;;;;;;5123005;27;46555;-75
2023/07/31 01:42:44;;;;;;;;;5.33;4.00;;;;;;;;5123106;27;45322;-75
2023/07/31 01:45:10;;;;;;;;;5.67;5.33;;;;;;;;5123292;27;45364;-75
2023/07/31 01:47:35;;;;;;;;;4.00;4.00;;;;;;;;5122962;27;46677;-75
2023/07/31 01:50:00;;;;;;;;;5.33;5.00;;;;;;;;5122667;27;46890;-75
2023/07/31 01:52:25;;;;;;;;;5.00;5.00;;;;;;;;5122960;27;45318;-75
2023/07/31 01:54:51;;;;;;;;;6.00;4.67;;;;;;;;5123303;27;45401;-75
2023/07/31 01:57:16;;;;;;;;;4.33;4.33;;;;;;;;5128092;27;45514;-75
2023/07/31 01:59:42;;;;;;;;;2.33;2.33;;;;;;;;5129611;27;46364;-75
2023/07/31 02:02:07;;;;;;;;;0.00;0.00;;;;;;;;5129777;27;45473;-75
2023/07/31 02:04:32;;;;;;;;;3.00;3.00;;;;;;;;5129937;27;45448;-75
2023/07/31 02:06:57;;;;;;;;;4.67;4.67;;;;;;;;5129298;27;45360;-75
2023/07/31 02:09:22;;;;;;;;;6.00;6.00;;;;;;;;5129777;27;47359;-76
2023/07/31 02:11:48;;;;;;;;;5.00;4.33;;;;;;;;5129767;27;45606;-75
2023/07/31 02:14:13;;;;;;;;;6.00;4.33;;;;;;;;5129886;27;45386;-75
2023/07/31 02:16:38;;;;;;;;;4.00;2.00;;;;;;;;5129495;27;46120;-74
2023/07/31 02:19:03;;;;;;;;;4.33;4.33;;;;;;;;5129502;27;46419;-75
2023/07/31 02:21:28;;;;;;;;;5.00;4.00;;;;;;;;5129313;27;45343;-75
2023/07/31 02:23:54;;;;;;;;;4.00;4.00;;;;;;;;5129637;27;45386;-75
2023/07/31 02:26:19;;;;;;;;;10.00;7.67;;;;;;;;5129534;27;46080;-74
2023/07/31 02:28:44;;;;;;;;;4.00;4.00;;;;;;;;5125224;27;47033;-75
2023/07/31 02:31:09;;;;;;;;;6.67;5.00;;;;;;;;5108816;27;45479;-75
2023/07/31 02:33:34;;;;;;;;;4.00;4.00;;;;;;;;5108804;27;45309;-75
2023/07/31 02:36:00;;;;;;;;;4.33;3.33;;;;;;;;5108491;27;46986;-75
2023/07/31 02:38:25;;;;;;;;;4.33;4.33;;;;;;;;5108504;27;45444;-75
2023/07/31 02:40:50;;;;;;;;;5.33;4.67;;;;;;;;5108335;27;45340;-75
2023/07/31 02:43:15;;;;;;;;;5.00;4.00;;;;;;;;5108796;27;45344;-75
2023/07/31 02:45:41;;;;;;;;;5.33;4.00;;;;;;;;5108610;27;46156;-75
2023/07/31 02:48:06;;;;;;;;;4.00;4.00;;;;;;;;5108354;27;48403;-75
2023/07/31 02:50:32;;;;;;;;;4.75;4.25;;;;;;;;5107911;27;45326;-75
2023/07/31 02:52:57;;;;;;;;;2.33;2.00;;;;;;;;5108515;27;45197;-75
2023/07/31 02:55:22;;;;;;;;;4.67;4.67;;;;;;;;5108458;27;45608;-75
2023/07/31 02:57:47;;;;;;;;;4.00;2.67;;;;;;;;5108230;27;46976;-75
2023/07/31 03:00:13;;;;;;;;;3.00;3.00;;;;;;;;5108474;27;45259;-75
2023/07/31 03:02:38;;;;;;;;;4.00;4.00;;;;;;;;5108472;27;45302;-75
2023/07/31 03:05:03;;;;;;;;;3.67;3.67;;;;;;;;5108203;27;46056;-75
2023/07/31 03:07:30;;;;;;;;;2.33;2.00;;;;;;;;5106153;27;45386;-75
2023/07/31 03:09:55;;;;;;;;;5.67;4.00;;;;;;;;5104862;27;45423;-75
2023/07/31 03:12:20;;;;;;;;;3.00;3.00;;;;;;;;5104948;27;45315;-75
2023/07/31 03:14:46;;;;;;;;;4.00;4.00;;;;;;;;5104789;27;45791;-75
2023/07/31 03:17:11;;;;;;;;;3.67;2.67;;;;;;;;5104799;27;46729;-75
2023/07/31 03:19:37;;;;;;;;;4.00;4.00;;;;;;;;5104683;27;45338;-75
2023/07/31 03:22:02;;;;;;;;;3.33;3.33;;;;;;;;5104695;27;45517;-75
2023/07/31 03:24:28;;;;;;;;;2.00;2.00;;;;;;;;5104495;27;46770;-75
2023/07/31 03:26:53;;;;;;;;;3.00;3.00;;;;;;;;5104519;27;46911;-75
2023/07/31 03:29:18;;;;;;;;;1.67;1.67;;;;;;;;5113156;27;45341;-75
2023/07/31 03:31:43;;;;;;;;;2.00;2.00;;;;;;;;5125570;27;45338;-75
2023/07/31 03:34:09;;;;;;;;;4.00;3.67;;;;;;;;5125144;27;45907;-75
2023/07/31 03:36:34;;;;;;;;;2.00;2.00;;;;;;;;5124948;27;47479;-75
2023/07/31 03:38:59;;;;;;;;;2.67;2.67;;;;;;;;5143948;27;45332;-75
2023/07/31 03:41:24;;;;;;;;;3.00;3.00;;;;;;;;5143647;27;45267;-75
2023/07/31 03:43:55;;;;;;;;;3.00;1.00;;;;;;;;5124775;27;45370;-75
2023/07/31 03:46:21;;;;;;;;;4.00;3.33;;;;;;;;5124792;27;46763;-75
2023/07/31 03:48:46;;;;;;;;;1.50;1.00;;;;;;;;5124697;27;45399;-75
2023/07/31 03:51:11;;;;;;;;;3.33;3.33;;;;;;;;5124829;27;45543;-75
2023/07/31 03:53:36;;;;;;;;;1.67;1.67;;;;;;;;5124727;27;45599;-74
2023/07/31 03:56:01;;;;;;;;;2.33;2.33;;;;;;;;5124848;27;45373;-75
2023/07/31 03:58:27;;;;;;;;;3.00;3.00;;;;;;;;5124689;27;45394;-75
2023/07/31 04:00:52;;;;;;;;;3.00;2.67;;;;;;;;5125046;27;45327;-75
2023/07/31 04:03:17;;;;;;;;;2.33;2.33;;;;;;;;5124593;27;46606;-75
2023/07/31 04:05:42;;;;;;;;;3.00;2.67;;;;;;;;5124350;27;47145;-75
2023/07/31 04:08:07;;;;;;;;;4.00;4.00;;;;;;;;5124604;27;45407;-74
2023/07/31 04:10:33;;;;;;;;;2.00;2.00;;;;;;;;5124905;27;45366;-75
2023/07/31 04:12:59;;;;;;;;;3.33;3.33;;;;;;;;5124587;27;47069;-75
2023/07/31 04:15:24;;;;;;;;;2.67;2.67;;;;;;;;5124528;27;46833;-75
2023/07/31 04:17:50;;;;;;;;;5.67;5.67;;;;;;;;5124578;27;45361;-74
2023/07/31 04:20:15;;;;;;;;;4.00;3.00;;;;;;;;5124035;27;45307;-75
2023/07/31 04:22:40;;;;;;;;;3.00;3.00;;;;;;;;5124497;27;45752;-75
2023/07/31 04:25:05;;;;;;;;;3.67;3.67;;;;;;;;5124181;27;47506;-75
2023/07/31 04:27:31;;;;;;;;;5.00;5.00;;;;;;;;5124414;27;45237;-75
2023/07/31 04:29:56;;;;;;;;;6.33;4.67;;;;;;;;5110018;27;45342;-75
2023/07/31 04:32:21;;;;;;;;;3.00;3.00;;;;;;;;5103595;27;46148;-75
2023/07/31 04:34:46;;;;;;;;;3.00;3.00;;;;;;;;5103381;27;45371;-74
2023/07/31 04:37:12;;;;;;;;;5.00;5.00;;;;;;;;5103250;27;45250;-75
2023/07/31 04:39:37;;;;;;;;;5.33;4.00;;;;;;;;5122283;27;45339;-75
2023/07/31 04:42:02;;;;;;;;;2.00;2.00;;;;;;;;5103253;27;45447;-75
2023/07/31 04:44:27;;;;;;;;;3.00;3.00;;;;;;;;5103275;27;46317;-75
2023/07/31 04:46:53;;;;;;;;;2.33;2.33;;;;;;;;5103317;27;45226;-74
2023/07/31 04:49:19;;;;;;;;;3.33;3.33;;;;;;;;5103089;27;45224;-75
2023/07/31 04:51:44;;;;;;;;;3.67;3.67;;;;;;;;5102525;27;46006;-75
2023/07/31 04:54:09;;;;;;;;;4.00;3.00;;;;;;;;5102941;27;47993;-74
2023/07/31 04:56:34;;;;;;;;;4.67;3.67;;;;;;;;5103336;27;45344;-75
2023/07/31 04:58:59;;;;;;;;;2.00;2.00;;;;;;;;5103276;27;45301;-75
2023/07/31 05:01:25;;;;;;;;;3.67;3.67;;;;;;;;5103170;27;45778;-75
2023/07/31 05:03:50;;;;;;;;;4.00;4.00;;;;;;;;5103134;27;47299;-75
2023/07/31 05:06:15;;;;;;;;;4.67;3.33;;;;;;;;5121235;27;45334;-75
2023/07/31 05:08:40;;;;;;;;;3.00;3.00;;;;;;;;5103147;27;45411;-75
2023/07/31 05:11:06;;;;;;;;;5.00;3.00;;;;;;;;5103060;27;46583;-75
2023/07/31 05:13:31;;;;;;;;;2.00;2.00;;;;;;;;5102755;27;45447;-76
2023/07/31 05:15:56;;;;;;;;;2.67;2.67;;;;;;;;5102977;27;45312;-75
2023/07/31 05:18:21;;;;;;;;;2.00;2.00;;;;;;;;5102955;27;45293;-75
2023/07/31 05:20:46;;;;;;;;;4.00;4.00;;;;;;;;5102556;27;46786;-75
2023/07/31 05:23:12;;;;;;;;;5.33;3.00;;;;;;;;5102708;27;45463;-75
2023/07/31 05:25:37;;;;;;;;;2.00;2.00;;;;;;;;5102841;27;45806;-75
2023/07/31 05:28:02;;;;;;;;;3.67;3.67;;;;;;;;5102765;27;45386;-75
2023/07/31 05:30:29;;;;;;;;;2.67;2.67;;;;;;;;5120531;27;45538;-75
2023/07/31 05:32:55;;;;;;;;;5.67;3.67;;;;;;;;5123104;27;47663;-74
2023/07/31 05:35:20;;;;;;;;;4.33;4.33;;;;;;;;5123035;27;45243;-75
2023/07/31 05:37:45;;;;;;;;;3.67;3.67;;;;;;;;5123317;27;45201;-75
2023/07/31 05:40:10;;;;;;;;;3.00;3.00;;;;;;;;5123207;27;47237;-75
2023/07/31 05:42:38;;;;;;;;;5.67;3.67;;;;;;;;5122955;27;48118;-75
2023/07/31 05:45:03;;;;;;;;;3.00;3.00;;;;;;;;5123265;27;45336;-74
2023/07/31 05:47:29;;;;;;;;;3.33;3.33;;;;;;;;5123186;27;45337;-75
2023/07/31 05:49:54;;;;;;;;;4.00;3.67;;;;;;;;5122401;27;45330;-75
2023/07/31 05:52:19;;;;;;;;;4.67;4.67;;;;;;;;5122812;27;46113;-75
2023/07/31 05:54:45;;;;;;;;;7.33;5.00;;;;;;;;5123073;27;45305;-75
2023/07/31 05:57:11;;;;;;;;;10.00;5.33;;;;;;;;5123208;27;45364;-74
2023/07/31 05:59:36;;;;;;;;;5.00;4.00;;;;;;;;5123018;27;46511;-75
2023/07/31 06:02:02;;;;;;;;;7.00;5.67;;;;;;;;5122706;27;47169;-75
2023/07/31 06:04:27;;;;;;;;;4.33;4.00;;;;;;;;5123028;27;45309;-74
2023/07/31 06:06:53;;;;;;;;;6.67;6.00;;;;;;;;5122437;27;45470;-75
2023/07/31 06:09:18;;;;;;;;;4.00;3.33;;;;;;;;5122934;27;45646;-76
2023/07/31 06:11:43;;;;;;;;;5.33;5.33;;;;;;;;5123018;27;45634;-75
2023/07/31 06:14:09;;;;;;;;;5.33;5.33;;;;;;;;5122868;27;46167;-76
2023/07/31 06:16:34;;;;;;;;;6.00;5.00;;;;;;;;5122798;27;45318;-75
2023/07/31 06:18:59;;;;;;;;;5.00;5.00;;;;;;;;5122705;27;46945;-75
2023/07/31 06:21:24;;;;;;;;;8.33;7.33;;;;;;;;5122275;27;45438;-75
2023/07/31 06:23:50;;;;;;;;;6.00;6.00;;;;;;;;5122765;27;45247;-75
2023/07/31 06:26:15;;;;;;;;;6.33;6.00;;;;;;;;5122665;27;45298;-75
2023/07/31 06:28:40;;;;;;;;;4.33;4.33;;;;;;;;5119059;27;46119;-76
2023/07/31 06:31:05;;;;;;;;;7.00;7.00;;;;;;;;5101921;27;48126;-75
2023/07/31 06:33:30;;;;;;;;;6.33;5.67;;;;;;;;5101888;27;45270;-75
2023/07/31 06:35:56;;;;;;;;;6.00;4.00;;;;;;;;5101736;27;45245;-75
2023/07/31 06:38:25;;;;;;;;;10.33;8.00;;;;;;;;5101704;27;45981;-76
2023/07/31 06:40:50;;;;;;;;;7.33;6.67;;;;;;;;5101604;27;47821;-75
2023/07/31 06:43:15;;;;;;;;;8.33;6.33;;;;;;;;5102785;27;45366;-75
2023/07/31 06:45:41;;;;;;;;;7.00;6.33;;;;;;;;5105567;27;45373;-75
2023/07/31 06:48:06;;;;;;;;;7.00;7.00;;;;;;;;5105308;27;45726;-76
2023/07/31 06:50:32;;;;;;;;;10.00;9.67;;;;;;;;5104536;27;47790;-76
2023/07/31 06:52:57;;;;;;;;;6.33;6.33;;;;;;;;5105291;27;45320;-76
2023/07/31 06:55:23;;;;;;;;;7.00;7.00;;;;;;;;5105318;27;45408;-75
2023/07/31 06:57:49;;;;;;;;;7.33;6.33;;;;;;;;5105243;27;46129;-75
2023/07/31 07:00:15;;;;;;;;;9.00;6.67;;;;;;;;5105088;27;45429;-76
2023/07/31 07:02:40;;;;;;;;;8.00;7.67;;;;;;;;5104560;27;45379;-75
2023/07/31 07:05:06;;;;;;;;;7.67;7.67;;;;;;;;5104831;27;45236;-75
2023/07/31 07:07:32;;;;;;;;;7.00;6.00;;;;;;;;5104715;27;45894;-76
2023/07/31 07:09:59;;;;;;;;;8.00;8.00;;;;;;;;5104796;27;46929;-75
2023/07/31 07:12:24;;;;;;;;;10.00;9.00;;;;;;;;5104843;27;45439;-75
2023/07/31 07:14:50;;;;;;;;;10.00;8.33;;;;;;;;5104908;27;45367;-76
2023/07/31 07:17:15;;;;;;;;;9.67;9.67;;;;;;;;5104890;27;46190;-75
2023/07/31 07:19:40;;;;;;;;;9.33;8.00;;;;;;;;5104413;27;45385;-75
2023/07/31 07:22:05;;;;;;;;;6.67;6.67;;;;;;;;5104530;27;45382;-75
2023/07/31 07:24:31;;;;;;;;;7.33;7.33;;;;;;;;5104769;27;45517;-75
2023/07/31 07:26:56;;;;;;;;;10.00;8.00;;;;;;;;5104634;27;46611;-75
2023/07/31 07:29:21;;;;;;;;;10.33;10.00;;;;;;;;5112931;27;45392;-75
2023/07/31 07:31:47;;;;;;;;;7.67;7.00;;;;;;;;5104628;27;45899;-75
2023/07/31 07:34:12;;;;;;;;;10.00;10.00;;;;;;;;5104704;27;45388;-75
2023/07/31 07:36:37;;;;;;;;;8.67;7.33;;;;;;;;5104330;27;45855;-75
2023/07/31 07:39:02;;;;;;;;;9.00;8.67;;;;;;;;5104512;27;47080;-75
2023/07/31 07:41:28;;;;;;;;;8.33;7.00;;;;;;;;5104254;27;45389;-75
2023/07/31 07:43:54;;;;;;;;;10.00;10.00;;;;;;;;5087719;27;45280;-76
2023/07/31 07:46:19;;;;;;;;;9.00;9.00;;;;;;;;5104113;27;46982;-75
2023/07/31 07:48:44;;;;;;;;;12.33;10.67;;;;;;;;5104148;27;46890;-75
2023/07/31 07:51:09;;;;;;;;;11.67;11.67;;;;;;;;5104101;27;45303;-75
2023/07/31 07:53:35;;;;;;;;;10.33;9.67;;;;;;;;5104059;27;45192;-75
2023/07/31 07:56:00;;;;;;;;;8.00;8.00;;;;;;;;5101679;27;45313;-75
2023/07/31 07:58:25;;;;;;;;;7.67;7.67;;;;;;;;5108575;27;45323;-78
2023/07/31 08:00:50;;;;;;;;;9.33;9.00;;;;;;;;5122136;27;45917;-74
2023/07/31 08:03:16;;;;;;;;;8.33;7.67;;;;;;;;5103797;27;45259;-74
2023/07/31 08:05:42;;;;;;;;;8.33;7.33;;;;;;;;5103532;27;45607;-75
2023/07/31 08:08:07;;;;;;;;;7.67;7.67;;;;;;;;5104048;27;46887;-75
2023/07/31 08:10:32;;;;;;;;;6.67;6.67;;;;;;;;5104039;27;45184;-75
2023/07/31 08:12:58;;;;;;;;;8.33;8.33;;;;;;;;5104063;27;45301;-74
2023/07/31 08:15:23;;;;;;;;;9.00;8.67;;;;;;;;5103813;27;45402;-74
2023/07/31 08:17:48;;;;;;;;;12.00;10.00;;;;;;;;5103920;27;46967;-75
2023/07/31 08:20:14;;;;;;;;;7.33;7.00;;;;;;;;5103782;27;45334;-75
2023/07/31 08:22:39;;;;;;;;;12.33;9.67;;;;;;;;5104127;27;45410;-75
2023/07/31 08:25:06;;;;;;;;;12.00;10.00;;;;;;;;5103561;27;45984;-75
2023/07/31 08:27:31;;;;;;;;;8.00;8.00;;;;;;;;5103752;27;47166;-75
2023/07/31 08:29:57;;;;;;;;;8.00;7.50;;;;;;;;5103732;27;45737;-76
2023/07/31 08:32:22;;;;;;;;;7.67;7.67;;;;;;;;5103753;27;45330;-75
2023/07/31 08:34:47;;;;;;;;;7.67;7.67;;;;;;;;5103703;27;45557;-74
2023/07/31 08:37:12;;;;;;;;;11.00;9.00;;;;;;;;5103709;27;45520;-75
2023/07/31 08:39:39;;;;;;;;;11.67;9.67;;;;;;;;5103441;27;45366;-74
2023/07/31 08:42:07;;;;;;;;;10.33;8.67;;;;;;;;5103055;27;45200;-74
2023/07/31 08:44:33;;;;;;;;;9.33;8.00;;;;;;;;5102899;27;45912;-74
2023/07/31 08:46:58;;;;;;;;;8.00;8.00;;;;;;;;5102803;27;46810;-75
2023/07/31 08:49:24;;;;;;;;;9.33;7.67;;;;;;;;5102837;27;45438;-75
2023/07/31 08:51:50;;;;;;;;;8.00;8.00;;;;;;;;5103360;27;45390;-74
2023/07/31 08:54:15;;;;;;;;;6.33;6.33;;;;;;;;5103144;27;45372;-75
2023/07/31 08:56:40;;;;;;;;;9.00;8.00;;;;;;;;5103242;27;46607;-76
2023/07/31 08:59:06;;;;;;;;;7.00;7.00;;;;;;;;5103654;27;45345;-76
2023/07/31 09:01:35;;;;;;;;;6.67;6.67;;;;;;;;5103594;27;45305;-74
2023/07/31 09:04:01;;;;;;;;;7.67;7.00;;;;;;;;5103429;27;45691;-74
2023/07/31 09:06:28;;;;;;;;;9.00;9.00;;;;;;;;5101759;27;46273;-74
2023/07/31 09:08:53;;;;;;;;;10.67;10.00;;;;;;;;5102992;27;45285;-75
2023/07/31 09:11:18;;;;;;;;;8.00;8.00;;;;;;;;5102721;27;45312;-75
2023/07/31 09:13:44;;;;;;;;;8.00;7.00;;;;;;;;5103115;27;45518;-75
2023/07/31 09:16:10;;;;;;;;;8.00;8.00;;;;;;;;5102729;27;48104;-75
2023/07/31 09:19:03;;;;;;;;;8.00;8.00;;;;;;;;5103022;27;45310;-76
2023/07/31 09:21:28;;;;;;;;;7.33;6.00;;;;;;;;5097038;27;45571;-75
2023/07/31 09:23:54;;;;;;;;;8.67;7.67;;;;;;;;5096543;27;46942;-74
2023/07/31 09:26:36;;;;;;;;;4.00;3.00;;;;;;;;5102957;27;47784;-75
2023/07/31 09:29:03;;;;;;;;;8.00;7.67;;;;;;;;5108898;27;45335;-75
2023/07/31 09:31:40;;;;;;;;;9.67;8.67;;;;;;;;5123443;27;45341;-75
2023/07/31 09:34:05;;;;;;;;;8.00;8.00;;;;;;;;5123366;27;45893;-75
2023/07/31 09:36:31;;;;;;;;;7.33;6.33;;;;;;;;5123195;27;46889;-76
2023/07/31 09:38:58;;;;;;;;;9.33;8.00;;;;;;;;5123608;27;45338;-75
2023/07/31 09:41:23;;;;;;;;;5.67;5.67;;;;;;;;5123077;27;45524;-74
2023/07/31 09:43:53;;;;;;;;;8.00;6.00;;;;;;;;5123519;27;45421;-75
2023/07/31 09:46:20;;;;;;;;;6.67;6.67;;;;;;;;5123058;27;48527;-76
2023/07/31 09:48:45;;;;;;;;;8.67;7.00;;;;;;;;5123023;27;45982;-76
2023/07/31 09:51:10;;;;;;;;;9.00;9.00;;;;;;;;5123227;27;45422;-76
2023/07/31 09:53:35;;;;;;;;;7.33;7.33;;;;;;;;5123794;27;46713;-75
2023/07/31 09:56:01;;;;;;;;;8.33;7.33;;;;;;;;5124615;27;46820;-76
2023/07/31 09:58:28;;;;;;;;;6.00;6.00;;;;;;;;5106530;27;45350;-74
2023/07/31 10:00:53;;;;;;;;;7.00;6.33;;;;;;;;5103218;27;45377;-74
2023/07/31 10:03:19;;;;;;;;;8.00;6.00;;;;;;;;5102558;27;46276;-73
2023/07/31 10:05:50;;;;;;;;;6.00;6.00;;;;;;;;5101791;27;46988;-74
2023/07/31 10:08:15;;;;;;;;;8.00;7.67;;;;;;;;5102219;27;45362;-74
2023/07/31 10:10:42;;;;;;;;;9.00;8.33;;;;;;;;5102393;27;45338;-75
2023/07/31 10:13:08;;;;;;;;;7.00;7.00;;;;;;;;5102823;27;45876;-75
2023/07/31 10:15:34;;;;;;;;;9.00;7.00;;;;;;;;5102724;27;48369;-76
2023/07/31 10:18:02;;;;;;;;;9.00;7.67;;;;;;;;5104871;27;45283;-75
2023/07/31 10:20:29;;;;;;;;;8.00;7.67;;;;;;;;5106689;27;45238;-76
2023/07/31 10:22:57;;;;;;;;;7.00;6.00;;;;;;;;5106729;27;47330;-75
2023/07/31 10:25:23;;;;;;;;;6.33;6.33;;;;;;;;5106122;27;45369;-77
2023/07/31 10:27:49;;;;;;;;;6.00;6.00;;;;;;;;5105633;27;45358;-75
2023/07/31 10:30:17;;;;;;;;;7.33;6.67;;;;;;;;5122349;27;45461;-75
2023/07/31 10:32:43;;;;;;;;;7.00;6.00;;;;;;;;5126114;27;47212;-75
2023/07/31 10:35:09;;;;;;;;;9.00;9.00;;;;;;;;5108802;27;47878;-74
2023/07/31 10:37:39;;;;;;;;;7.00;6.33;;;;;;;;5108805;27;45401;-74
2023/07/31 10:40:05;;;;;;;;;8.33;8.33;;;;;;;;5126335;27;45291;-75
2023/07/31 10:42:34;;;;;;;;;8.33;8.33;;;;;;;;5125671;27;46009;-75
2023/07/31 10:45:04;;;;;;;;;5.75;5.75;;;;;;;;5125865;27;46924;-75
2023/07/31 10:47:29;;;;;;;;;11.00;8.67;;;;;;;;5125918;27;45216;-75
2023/07/31 10:50:13;;;;;;;;;9.33;8.00;;;;;;;;5125591;27;45265;-74
2023/07/31 10:52:38;;;;;;;;;6.33;6.33;;;;;;;;5112752;27;45789;-74
2023/07/31 10:55:30;;;;;;;;;9.00;7.67;;;;;;;;5104424;27;46844;-75
2023/07/31 10:57:57;;;;;;;;;9.00;9.00;;;;;;;;5073141;27;45384;-74
2023/07/31 11:00:27;;;;;;;;;7.67;7.67;;;;;;;;5105028;27;45327;-75
2023/07/31 11:02:59;;;;;;;;;9.33;9.33;;;;;;;;5104435;27;45975;-75
2023/07/31 11:05:44;;;;;;;;;11.33;10.33;;;;;;;;5104190;27;46271;-75
2023/07/31 11:08:10;;;;;;;;;6.00;6.00;;;;;;;;5098214;27;45245;-74
2023/07/31 11:10:35;;;;;;;;;8.00;8.00;;;;;;;;5097631;27;45424;-75
2023/07/31 11:13:03;;;;;;;;;9.67;9.67;;;;;;;;5104229;27;45730;-75
2023/07/31 11:15:29;;;;;;;;;8.67;8.33;;;;;;;;5104495;27;45520;-74
2023/07/31 11:17:55;;;;;;;;;10.00;9.67;;;;;;;;5101604;27;45667;-74
2023/07/31 11:20:21;;;;;;;;;11.33;10.00;;;;;;;;5082949;27;45419;-75
2023/07/31 11:22:47;;;;;;;;;11.00;10.00;;;;;;;;5095930;27;46269;-77
2023/07/31 11:25:14;;;;;;;;;7.67;7.67;;;;;;;;5104452;27;45413;-75
2023/07/31 11:27:40;;;;;;;;;3.00;2.00;;;;;;;;5104194;27;45417;-75
2023/07/31 11:30:07;;;;;;;;;9.00;9.00;;;;;;;;5102016;27;45527;-75
2023/07/31 11:32:32;;;;;;;;;9.33;9.33;;;;;;;;5108462;27;45476;-75
2023/07/31 11:34:57;;;;;;;;;8.33;7.67;;;;;;;;5143473;27;45331;-75
2023/07/31 11:37:22;;;;;;;;;10.33;9.33;;;;;;;;5124657;27;45239;-75
2023/07/31 11:40:00;;;;;;;;;10.00;10.00;;;;;;;;5124999;27;45259;-75
2023/07/31 11:42:26;;;;;;;;;9.33;8.33;;;;;;;;5123914;27;45786;-74
2023/07/31 11:44:51;;;;;;;;;11.00;9.33;;;;;;;;5104515;27;47894;-74
2023/07/31 11:47:16;;;;;;;;;11.33;11.33;;;;;;;;5103232;27;45953;-74
2023/07/31 11:49:42;;;;;;;;;13.00;12.33;;;;;;;;5103433;27;45373;-74
2023/07/31 11:52:07;;;;;;;;;11.67;10.00;;;;;;;;5101939;27;45453;-74
2023/07/31 11:54:32;;;;;;;;;13.67;12.67;;;;;;;;5103528;27;45658;-75
2023/07/31 11:57:00;;;;;;;;;11.00;11.00;;;;;;;;5103257;27;45470;-74
2023/07/31 11:59:26;;;;;;;;;15.00;12.00;;;;;;;;5101917;27;45477;-74
2023/07/31 12:01:53;;;;;;;;;12.00;12.00;;;;;;;;5103725;27;46235;-74
2023/07/31 12:04:19;;;;;;;;;12.67;11.00;;;;;;;;5103119;27;47483;-75
2023/07/31 12:06:44;;;;;;;;;12.00;12.00;;;;;;;;5103649;27;45458;-75
2023/07/31 12:09:10;;;;;;;;;13.00;11.00;;;;;;;;5103264;27;45539;-74
2023/07/31 12:11:45;;;;;;;;;12.67;11.00;;;;;;;;5103877;27;45695;-74
2023/07/31 12:14:28;;;;;;;;;15.00;11.00;;;;;;;;5103531;27;45508;-75
2023/07/31 12:16:58;;;;;;;;;10.00;9.67;;;;;;;;5102911;27;45235;-76
2023/07/31 12:19:29;;;;;;;;;9.50;8.75;;;;;;;;5103672;27;45334;-77
2023/07/31 12:21:54;;;;;;;;;11.00;10.33;;;;;;;;5103363;27;45382;-79
2023/07/31 12:24:20;;;;;;;;;11.33;9.67;;;;;;;;5102977;27;45343;-76
2023/07/31 12:26:46;;;;;;;;;8.00;8.00;;;;;;;;5103653;27;45494;-75
2023/07/31 12:29:11;;;;;;;;;8.67;8.67;;;;;;;;5106527;27;45321;-74
2023/07/31 12:31:37;;;;;;;;;11.00;11.00;;;;;;;;5102674;27;46094;-75
2023/07/31 12:34:02;;;;;;;;;10.67;10.00;;;;;;;;5102861;27;45397;-75
2023/07/31 12:36:30;;;;;;;;;12.00;10.33;;;;;;;;5103032;27;45740;-73
2023/07/31 12:38:58;;;;;;;;;9.00;9.00;;;;;;;;5100179;27;45702;-75
2023/07/31 12:41:23;;;;;;;;;12.67;12.00;;;;;;;;5101908;27;45806;-74
2023/07/31 12:43:48;;;;;;;;;11.00;9.00;;;;;;;;5102412;27;48205;-74
2023/07/31 12:46:14;;;;;;;;;12.67;9.67;;;;;;;;5103111;27;45318;-74
2023/07/31 12:48:40;;;;;;;;;10.33;8.67;;;;;;;;5102819;27;45390;-74
2023/07/31 12:51:06;;;;;;;;;12.00;11.00;;;;;;;;5102550;27;46156;-74
2023/07/31 12:53:31;;;;;;;;;10.00;9.00;;;;;;;;5115372;27;46976;-74
2023/07/31 12:55:57;;;;;;;;;9.33;7.67;;;;;;;;5123626;27;45300;-75
2023/07/31 12:58:22;;;;;;;;;9.67;8.00;;;;;;;;5122946;27;45295;-75
2023/07/31 13:00:47;;;;;;;;;6.33;6.33;;;;;;;;5102239;27;46749;-75
2023/07/31 13:03:13;;;;;;;;;6.33;6.33;;;;;;;;5102457;27;46828;-74
2023/07/31 13:05:38;;;;;;;;;11.33;8.33;;;;;;;;5102497;27;45418;-74
2023/07/31 13:08:03;;;;;;;;;8.67;8.00;;;;;;;;5102697;27;45402;-74
2023/07/31 13:10:29;;;;;;;;;9.00;8.00;;;;;;;;5102864;27;46702;-74
2023/07/31 13:12:54;;;;;;;;;9.00;9.00;;;;;;;;5102379;27;46351;-74
2023/07/31 13:15:20;;;;;;;;;11.00;10.00;;;;;;;;5102592;27;45266;-75
2023/07/31 13:17:45;;;;;;;;;9.00;9.00;;;;;;;;5102740;27;45277;-74
2023/07/31 13:20:11;;;;;;;;;10.67;8.33;;;;;;;;5102529;27;45786;-74
2023/07/31 13:22:36;;;;;;;;;10.67;9.00;;;;;;;;5102129;27;45558;-74
2023/07/31 13:25:01;;;;;;;;;9.00;9.00;;;;;;;;5102521;27;45325;-75
2023/07/31 13:27:26;;;;;;;;;8.75;8.75;;;;;;;;5097889;27;45351;-75
2023/07/31 13:29:52;;;;;;;;;7.67;7.67;;;;;;;;5115370;27;46313;-74
2023/07/31 13:32:17;;;;;;;;;7.75;7.75;;;;;;;;5109856;27;48172;-74
2023/07/31 13:34:43;;;;;;;;;8.67;8.67;;;;;;;;5102666;27;45254;-74
2023/07/31 13:37:08;;;;;;;;;9.67;9.67;;;;;;;;5103121;27;45420;-74
2023/07/31 13:39:34;;;;;;;;;11.00;9.33;;;;;;;;5102546;27;46091;-74
2023/07/31 13:41:59;;;;;;;;;7.00;7.00;;;;;;;;5102937;27;47433;-74
2023/07/31 13:44:25;;;;;;;;;6.67;6.67;;;;;;;;5102531;27;45406;-74
2023/07/31 13:46:50;;;;;;;;;10.33;10.33;;;;;;;;5103149;27;45353;-74
2023/07/31 13:49:15;;;;;;;;;8.33;8.00;;;;;;;;5102490;27;45540;-74
2023/07/31 13:51:40;;;;;;;;;7.33;7.33;;;;;;;;5102779;27;45365;-74
2023/07/31 13:54:11;;;;;;;;;11.00;9.33;;;;;;;;5103017;27;45430;-74
2023/07/31 13:56:36;;;;;;;;;10.00;9.00;;;;;;;;5103816;27;45259;-75
2023/07/31 13:59:01;;;;;;;;;7.00;7.00;;;;;;;;5102248;27;45562;-74
2023/07/31 14:01:26;;;;;;;;;10.25;9.50;;;;;;;;5102210;27;46592;-74
2023/07/31 14:03:52;;;;;;;;;7.67;7.67;;;;;;;;5102126;27;45252;-74
2023/07/31 14:06:17;;;;;;;;;7.67;7.67;;;;;;;;5099406;27;45603;-74
2023/07/31 14:08:42;;;;;;;;;9.00;8.75;;;;;;;;5101851;27;45916;-74
2023/07/31 14:11:07;;;;;;;;;9.33;9.00;;;;;;;;5101759;27;46378;-74
2023/07/31 14:13:32;;;;;;;;;7.67;7.00;;;;;;;;5101556;27;45172;-74
2023/07/31 14:15:58;;;;;;;;;8.33;8.33;;;;;;;;5102161;27;45283;-75
2023/07/31 14:18:23;;;;;;;;;9.00;9.00;;;;;;;;5101513;27;45275;-74
2023/07/31 14:20:48;;;;;;;;;8.33;8.33;;;;;;;;5101199;27;47080;-74
2023/07/31 14:23:14;;;;;;;;;9.00;8.00;;;;;;;;5102084;27;45499;-75
2023/07/31 14:25:39;;;;;;;;;8.00;7.00;;;;;;;;5102185;27;45317;-76
2023/07/31 14:28:04;;;;;;;;;7.50;5.75;;;;;;;;5102283;27;45842;-75
2023/07/31 14:30:30;;;;;;;;;8.67;6.67;;;;;;;;5120588;27;46655;-74
2023/07/31 14:32:55;;;;;;;;;6.67;6.67;;;;;;;;5122668;27;45363;-75